Airfield :







YOU CAN JOIN US ON...

 
LOGIN :

Register | Disclaimer

   EN    FR    IT 

 









Legend :    VFR   Marginal VFR   IFR   Intensive IFR   Very Intensive IFR
Visi :
Ceiling :
>= 8 km
>= 3000ft
5 to 8 km
1000 to 3000 ft
1500m to 5 km
500 to 1000 ft
800 to 1500m
200 to 500 ft
< 800m
< 200 ft
Symbols :   Thunderstorms  Fog  Heavy snow  Heavy precipitations  Wind > 20 kt






- Airport Elevation : 22 ft
- IATA code : YDP


CYDP - Nain

CURRENT METAR :
  • 171800Z 27011G17KT 15SM BKN038 OVC110 17/09 A2959 RMK SC6AS2 SLP020 DENSITY ALT 700FT

EXPIRED METARs :
  • 171700Z 00000KT 15SM BKN038 OVC110 15/10 A2960 RMK SC6AS2 PRESFR SLP026 DENSITY ALT 400FT
  • 171600Z 08003KT 020V120 15SM BKN038 OVC110 13/08 A2965 RMK SC7AS1 PRESFR SLP041 DENSITY ALT 100FT

TAF TAF CYDP
Valid from the 17 at 14:00 until the 17 at 23:00 UTC


171338Z 1714/1723 01007KT P6SM BKN040 OVC100
TEMPO 1714/1718 P6SM -SHRA
BECMG 1716/1718 26020G30KT
FM171800 26020G30KT P6SM SCT020 OVC040
TEMPO 1718/1723 5SM -SHRA BR BKN020 OVC040 RMK NXT FCST BY 172000Z
CZQX FIR / North America



MET'MAP, your aeronautical weather chart ! - Copyright ORBIFLY December 2007 - Disclaimer

ORBIFLY MET'MAP TEAM :

Programming & Development : Alexandra Zaïnal
Concept & original design : Baudouin d'Aumeries
Assistance for programming : Marc-Olivier Méhu
Technical & hardware support : Manuel Goepfert

Contact : metmap@orbifly.com




SOURCES & CREDITS :

   NOAA